Time;durP1;ratioP1;P1;durP2;ratioP2;P2;SDS_P1;SDS_P2;PMS_P1;PMS_P2;Temp;Humidity;BMP_temperature;BMP_pressure;BME280_temperature;BME280_humidity;BME280_pressure;Samples;Min_cycle;Max_cycle;Signal;HPM_P1;HPM_P2
2023/03/29 00:01:30;;;;;;;4.68;2.85;;;;;;;-145.50;100.00;65435.88;4903293;29;20469;-68
2023/03/29 00:04:03;;;;;;;4.82;2.67;;;;;;;-145.50;100.00;65435.88;4907629;29;20666;-68
2023/03/29 00:06:30;;;;;;;6.82;2.15;;;;;;;-145.50;100.00;65435.88;4908856;29;20052;-68
2023/03/29 00:08:56;;;;;;;5.50;2.78;;;;;;;-145.50;100.00;65435.88;4908628;29;20056;-68
2023/03/29 00:11:22;;;;;;;6.18;2.55;;;;;;;-145.50;100.00;65435.88;4900737;29;20060;-68
2023/03/29 00:13:49;;;;;;;7.55;2.78;;;;;;;-145.50;100.00;65435.88;4909784;29;20070;-68
2023/03/29 00:16:16;;;;;;;5.97;2.35;;;;;;;-145.50;100.00;65435.88;4900683;29;20055;-68
2023/03/29 00:18:44;;;;;;;5.55;2.63;;;;;;;-145.50;100.00;65435.88;4908722;29;20052;-67
2023/03/29 00:21:10;;;;;;;6.90;2.83;;;;;;;-145.50;100.00;65435.88;4904033;29;20170;-67
2023/03/29 00:23:37;;;;;;;5.35;2.80;;;;;;;-145.50;100.00;65435.88;4911949;29;20059;-67
2023/03/29 00:26:03;;;;;;;6.75;3.17;;;;;;;-145.50;100.00;65435.88;4909784;29;20424;-67
2023/03/29 00:28:33;;;;;;;5.88;2.70;;;;;;;-145.50;100.00;65435.88;4899875;29;20108;-67
2023/03/29 00:31:08;;;;;;;6.82;2.78;;;;;;;-145.50;100.00;65435.88;4905052;29;20111;-67
2023/03/29 00:33:35;;;;;;;6.55;2.70;;;;;;;-145.50;100.00;65435.88;4903509;29;20056;-67
2023/03/29 00:36:03;;;;;;;5.18;2.67;;;;;;;-145.50;100.00;65435.88;4911365;29;20060;-67
2023/03/29 00:38:30;;;;;;;5.87;2.53;;;;;;;-145.50;100.00;65435.88;4914127;29;20063;-68
2023/03/29 00:40:57;;;;;;;5.43;2.65;;;;;;;-145.50;100.00;65435.88;4916412;29;20486;-68
2023/03/29 00:43:24;;;;;;;5.32;2.47;;;;;;;-145.50;100.00;65435.88;4904812;29;20055;-67
2023/03/29 00:45:53;;;;;;;6.50;2.80;;;;;;;-145.50;100.00;65435.88;4917162;29;20063;-67
2023/03/29 00:48:25;;;;;;;6.63;2.50;;;;;;;-145.50;100.00;65435.88;4907343;29;20735;-67
2023/03/29 00:51:07;;;;;;;4.78;2.97;;;;;;;-145.50;100.00;65435.88;4902201;29;20063;-67
2023/03/29 00:53:41;;;;;;;5.38;2.95;;;;;;;-145.50;100.00;65435.88;4904734;29;20062;-67
2023/03/29 00:56:16;;;;;;;6.28;3.08;;;;;;;-145.50;100.00;65435.88;4895932;29;20107;-67
2023/03/29 00:58:49;;;;;;;7.70;2.70;;;;;;;-145.50;100.00;65435.88;4907014;29;20044;-67
2023/03/29 01:01:19;;;;;;;5.50;2.70;;;;;;;-145.50;100.00;65435.88;4904473;29;20052;-66
2023/03/29 01:03:54;;;;;;;5.65;2.80;;;;;;;-145.50;100.00;65435.88;4918695;29;20060;-64
2023/03/29 01:06:25;;;;;;;6.18;2.67;;;;;;;-145.50;100.00;65435.88;4906644;29;20068;-64
2023/03/29 01:08:58;;;;;;;7.03;2.78;;;;;;;-145.50;100.00;65435.88;4897544;29;20052;-63
2023/03/29 01:11:27;;;;;;;5.35;2.67;;;;;;;-145.50;100.00;65435.88;4901363;29;20064;-64
2023/03/29 01:14:02;;;;;;;6.30;2.33;;;;;;;-145.50;100.00;65435.88;4901970;29;20062;-64
2023/03/29 01:16:31;;;;;;;5.78;2.25;;;;;;;-145.50;100.00;65435.88;4906678;29;20170;-65
2023/03/29 01:18:59;;;;;;;5.80;2.40;;;;;;;-145.50;100.00;65435.88;4901120;29;20143;-66
2023/03/29 01:21:35;;;;;;;4.45;2.45;;;;;;;-145.50;100.00;65435.88;4908911;29;20127;-64
2023/03/29 01:24:40;;;;;;;6.57;2.75;;;;;;;-145.50;100.00;65435.88;4900875;29;20052;-67
2023/03/29 01:27:46;;;;;;;4.78;2.88;;;;;;;-145.50;100.00;65435.88;4905962;29;20501;-65
2023/03/29 01:30:19;;;;;;;4.53;2.22;;;;;;;-145.50;100.00;65435.88;4902740;29;20048;-66
2023/03/29 01:32:55;;;;;;;5.07;2.38;;;;;;;-145.50;100.00;65435.88;4910728;29;20052;-66
2023/03/29 01:35:43;;;;;;;5.88;2.45;;;;;;;-145.50;100.00;65435.88;4907090;29;20527;-65
2023/03/29 01:38:33;;;;;;;5.72;2.40;;;;;;;-145.50;100.00;65435.88;4905334;29;20075;-66
2023/03/29 01:41:01;;;;;;;9.18;2.90;;;;;;;-145.50;100.00;65435.88;4905546;29;20455;-65
2023/03/29 01:43:45;;;;;;;4.80;2.40;;;;;;;-145.50;100.00;65435.88;4906135;29;20055;-64
2023/03/29 01:46:37;;;;;;;6.13;2.67;;;;;;;-145.50;100.00;65435.88;4906730;29;20138;-65
2023/03/29 01:49:20;;;;;;;5.43;2.40;;;;;;;-145.50;100.00;65435.88;4906187;29;20143;-66
2023/03/29 01:51:58;;;;;;;6.55;2.50;;;;;;;-145.50;100.00;65435.88;4894152;29;20543;-65
2023/03/29 01:54:31;;;;;;;6.97;2.90;;;;;;;-145.50;100.00;65435.88;4904960;29;20059;-65
2023/03/29 01:56:59;;;;;;;7.65;2.60;;;;;;;-145.50;100.00;65435.88;4912046;29;20096;-66
2023/03/29 01:59:30;;;;;;;5.47;2.80;;;;;;;-145.50;100.00;65435.88;4906222;29;20105;-65
2023/03/29 02:01:59;;;;;;;7.05;2.22;;;;;;;-145.50;100.00;65435.88;4909405;29;20179;-65
2023/03/29 02:04:33;;;;;;;5.68;2.70;;;;;;;-145.50;100.00;65435.88;4902138;29;20067;-65
2023/03/29 02:07:01;;;;;;;7.70;2.60;;;;;;;-145.50;100.00;65435.88;4899545;29;20196;-65
2023/03/29 02:09:29;;;;;;;4.38;2.65;;;;;;;-145.50;100.00;65435.88;4909860;29;20052;-66
2023/03/29 02:11:59;;;;;;;7.50;2.70;;;;;;;-145.50;100.00;65435.88;4905254;29;20059;-65
2023/03/29 02:14:26;;;;;;;6.60;2.67;;;;;;;-145.50;100.00;65435.88;4908472;29;20080;-66
2023/03/29 02:16:53;;;;;;;5.25;2.35;;;;;;;-145.50;100.00;65435.88;4897660;29;20059;-66
2023/03/29 02:19:20;;;;;;;5.47;2.38;;;;;;;-145.50;100.00;65435.88;4906140;29;20048;-66
2023/03/29 02:22:08;;;;;;;7.23;2.73;;;;;;;-145.50;100.00;65435.88;4900891;29;20490;-64
2023/03/29 02:24:36;;;;;;;7.18;2.75;;;;;;;-145.50;100.00;65435.88;4911100;29;20084;-66
2023/03/29 02:27:03;;;;;;;4.55;2.35;;;;;;;-145.50;100.00;65435.88;4907643;29;20687;-65
2023/03/29 02:29:30;;;;;;;6.72;2.75;;;;;;;-145.50;100.00;65435.88;4920450;29;20048;-68
2023/03/29 02:32:14;;;;;;;5.53;2.38;;;;;;;-145.50;100.00;65435.88;4909928;29;20056;-67
2023/03/29 02:34:50;;;;;;;8.85;2.63;;;;;;;-145.50;100.00;65435.88;4896842;29;20697;-67
2023/03/29 02:37:20;;;;;;;5.90;2.60;;;;;;;-145.50;100.00;65435.88;4912029;29;20051;-68
2023/03/29 02:39:50;;;;;;;5.18;2.63;;;;;;;-145.50;100.00;65435.88;4905911;29;20044;-68
2023/03/29 02:42:19;;;;;;;5.07;3.03;;;;;;;-145.50;100.00;65435.88;4926578;29;20437;-68
2023/03/29 02:44:49;;;;;;;7.75;2.90;;;;;;;-145.50;100.00;65435.88;4898775;29;20478;-68
2023/03/29 02:47:23;;;;;;;7.57;2.90;;;;;;;-145.50;100.00;65435.88;4906472;29;20056;-68
2023/03/29 02:49:50;;;;;;;6.05;2.95;;;;;;;-145.50;100.00;65435.88;4923310;29;20639;-66
2023/03/29 02:52:22;;;;;;;5.97;3.10;;;;;;;-145.50;100.00;65435.88;4907867;29;20502;-65
2023/03/29 02:54:53;;;;;;;6.20;2.72;;;;;;;-145.50;100.00;65435.88;4911084;29;20052;-65
2023/03/29 02:57:25;;;;;;;5.88;3.05;;;;;;;-145.50;100.00;65435.88;4905009;29;20080;-66
2023/03/29 02:59:55;;;;;;;5.93;3.38;;;;;;;-145.50;100.00;65435.88;4901782;29;20056;-65
2023/03/29 03:02:26;;;;;;;5.82;3.13;;;;;;;-145.50;100.00;65435.88;4901251;29;20059;-66
2023/03/29 03:04:53;;;;;;;7.38;3.35;;;;;;;-145.50;100.00;65435.88;4910903;29;20096;-66
2023/03/29 03:07:19;;;;;;;6.28;3.40;;;;;;;-145.50;100.00;65435.88;4905812;29;20608;-65
2023/03/29 03:09:46;;;;;;;7.40;3.72;;;;;;;-145.50;100.00;65435.88;4910066;29;20048;-65
2023/03/29 03:12:13;;;;;;;8.70;3.67;;;;;;;-145.50;100.00;65435.88;4910268;29;20052;-65
2023/03/29 03:14:39;;;;;;;5.82;3.28;;;;;;;-145.50;100.00;65435.88;4901614;29;20059;-66
2023/03/29 03:17:06;;;;;;;5.78;3.10;;;;;;;-145.50;100.00;65435.88;4905069;29;20047;-66
2023/03/29 03:19:32;;;;;;;9.30;3.60;;;;;;;-145.50;100.00;65435.88;4895034;29;20083;-65
2023/03/29 03:21:59;;;;;;;6.70;3.80;;;;;;;-145.50;100.00;65435.88;4910155;29;20052;-65
2023/03/29 03:24:26;;;;;;;7.85;3.53;;;;;;;-145.50;100.00;65435.88;4918579;29;20383;-67
2023/03/29 03:26:53;;;;;;;7.68;3.22;;;;;;;-145.50;100.00;65435.88;4909845;29;20083;-67
2023/03/29 03:29:19;;;;;;;6.80;3.50;;;;;;;-145.50;100.00;65435.88;4903542;29;20056;-66
2023/03/29 03:31:46;;;;;;;10.85;3.65;;;;;;;-145.50;100.00;65435.88;4901445;29;20044;-66
2023/03/29 03:34:12;;;;;;;5.43;3.05;;;;;;;-145.50;100.00;65435.88;4910650;29;20633;-66
2023/03/29 03:36:39;;;;;;;5.82;3.22;;;;;;;-145.50;100.00;65435.88;4903756;29;20052;-65
2023/03/29 03:39:06;;;;;;;6.30;3.40;;;;;;;-145.50;100.00;65435.88;4909831;29;20059;-67
2023/03/29 03:41:33;;;;;;;4.43;2.88;;;;;;;-145.50;100.00;65435.88;4901027;29;20780;-66
2023/03/29 03:44:00;;;;;;;6.78;3.25;;;;;;;-145.50;100.00;65435.88;4898621;29;20138;-66
2023/03/29 03:46:27;;;;;;;5.63;2.95;;;;;;;-145.50;100.00;65435.88;4908918;29;20059;-66
2023/03/29 03:48:55;;;;;;;6.88;3.60;;;;;;;-145.50;100.00;65435.88;4903379;29;20073;-67
2023/03/29 03:51:21;;;;;;;10.00;3.67;;;;;;;-145.50;100.00;65435.88;4909799;29;20048;-66
2023/03/29 03:53:48;;;;;;;9.70;3.33;;;;;;;-145.50;100.00;65435.88;4901627;29;20052;-65
2023/03/29 03:56:15;;;;;;;6.90;3.30;;;;;;;-145.50;100.00;65435.88;4904845;29;20066;-66
2023/03/29 03:58:41;;;;;;;6.18;3.35;;;;;;;-145.50;100.00;65435.88;4902658;29;20660;-65
2023/03/29 04:01:08;;;;;;;7.15;3.33;;;;;;;-145.50;100.00;65435.88;4909062;29;20054;-65
2023/03/29 04:03:36;;;;;;;7.53;3.78;;;;;;;-145.50;100.00;65435.88;4909406;29;20079;-68
2023/03/29 04:06:04;;;;;;;5.83;3.23;;;;;;;-145.50;100.00;65435.88;4887640;29;20056;-65
2023/03/29 04:08:30;;;;;;;7.72;2.97;;;;;;;-145.50;100.00;65435.88;4901129;29;20059;-65
2023/03/29 04:10:58;;;;;;;9.02;3.25;;;;;;;-145.50;100.00;65435.88;4897704;29;20822;-65
2023/03/29 04:13:26;;;;;;;5.57;2.75;;;;;;;-145.50;100.00;65435.88;4901216;29;20135;-66
2023/03/29 04:15:54;;;;;;;7.95;3.08;;;;;;;-145.50;100.00;65435.88;4904247;29;20131;-65
2023/03/29 04:18:21;;;;;;;7.28;3.58;;;;;;;-145.50;100.00;65435.88;4908053;29;20059;-66
2023/03/29 04:20:49;;;;;;;7.28;3.13;;;;;;;-145.50;100.00;65435.88;4908355;29;20135;-67
2023/03/29 04:23:16;;;;;;;7.32;3.42;;;;;;;-145.50;100.00;65435.88;4902475;29;20553;-65
2023/03/29 04:25:43;;;;;;;5.63;3.20;;;;;;;-145.50;100.00;65435.88;4900747;29;20552;-67
2023/03/29 04:28:10;;;;;;;6.38;3.50;;;;;;;-145.50;100.00;65435.88;4893455;29;20055;-66
2023/03/29 04:30:37;;;;;;;7.33;3.13;;;;;;;-145.50;100.00;65435.88;4907579;29;20379;-65
2023/03/29 04:33:04;;;;;;;9.43;3.22;;;;;;;-145.50;100.00;65435.88;4899667;29;20606;-67
2023/03/29 04:35:31;;;;;;;7.32;2.92;;;;;;;-145.50;100.00;65435.88;4903491;29;20040;-65
2023/03/29 04:37:57;;;;;;;6.07;3.00;;;;;;;-145.50;100.00;65435.88;4929566;29;20104;-65
2023/03/29 04:40:24;;;;;;;6.90;3.25;;;;;;;-145.50;100.00;65435.88;4902599;29;20135;-66
2023/03/29 04:42:51;;;;;;;7.97;3.30;;;;;;;-145.50;100.00;65435.88;4908379;29;20044;-66
2023/03/29 04:45:18;;;;;;;7.47;3.33;;;;;;;-145.50;100.00;65435.88;4900713;28;20076;-66
2023/03/29 04:47:45;;;;;;;10.38;3.53;;;;;;;-145.50;100.00;65435.88;4905714;29;20800;-66
2023/03/29 04:50:12;;;;;;;5.88;3.55;;;;;;;-145.50;100.00;65435.88;4891040;29;20832;-66
2023/03/29 04:52:39;;;;;;;4.47;2.92;;;;;;;-145.50;100.00;65435.88;4919812;29;20055;-67
2023/03/29 04:55:06;;;;;;;11.88;3.72;;;;;;;-145.50;100.00;65435.88;4909554;29;20081;-66
2023/03/29 04:57:33;;;;;;;5.07;3.03;;;;;;;-145.50;100.00;65435.88;4901790;29;20068;-66
2023/03/29 04:59:59;;;;;;;7.05;3.05;;;;;;;-145.50;100.00;65435.88;4904327;29;20062;-65
2023/03/29 05:02:26;;;;;;;5.38;3.10;;;;;;;-145.50;100.00;65435.88;4897280;29;20060;-66
2023/03/29 05:04:52;;;;;;;6.65;2.95;;;;;;;-145.50;100.00;65435.88;4908429;29;20537;-65
2023/03/29 05:07:19;;;;;;;6.25;2.83;;;;;;;-145.50;100.00;65435.88;4912196;29;20063;-66
2023/03/29 05:09:46;;;;;;;9.52;3.53;;;;;;;-145.50;100.00;65435.88;4906576;29;20085;-66
2023/03/29 05:12:12;;;;;;;7.18;3.08;;;;;;;-145.50;100.00;65435.88;4911565;29;20143;-66
2023/03/29 05:14:39;;;;;;;5.50;3.10;;;;;;;-145.50;100.00;65435.88;4900398;29;20056;-66
2023/03/29 05:17:06;;;;;;;5.53;2.60;;;;;;;-145.50;100.00;65435.88;4915185;29;20063;-66
2023/03/29 05:19:35;;;;;;;8.07;2.42;;;;;;;-145.50;100.00;65435.88;4905371;29;20051;-65
2023/03/29 05:22:01;;;;;;;7.43;2.67;;;;;;;-145.50;100.00;65435.88;4912331;29;20056;-66
2023/03/29 05:24:28;;;;;;;6.57;2.90;;;;;;;-145.50;100.00;65435.88;4911282;29;20055;-66
2023/03/29 05:26:55;;;;;;;5.80;2.95;;;;;;;-145.50;100.00;65435.88;4906397;29;20052;-67
2023/03/29 05:29:22;;;;;;;9.15;3.15;;;;;;;-145.50;100.00;65435.88;4905937;29;20439;-67
2023/03/29 05:31:48;;;;;;;7.53;3.53;;;;;;;-145.50;100.00;65435.88;4905283;29;20132;-65
2023/03/29 05:34:15;;;;;;;5.32;2.90;;;;;;;-145.50;100.00;65435.88;4911253;29;20114;-68
2023/03/29 05:36:42;;;;;;;8.48;3.03;;;;;;;-145.50;100.00;65435.88;4905682;29;20048;-66
2023/03/29 05:39:09;;;;;;;8.38;3.20;;;;;;;-145.50;100.00;65435.88;4910893;29;20048;-68
2023/03/29 05:41:36;;;;;;;9.00;2.90;;;;;;;-145.50;100.00;65435.88;4910089;29;20397;-65
2023/03/29 05:44:03;;;;;;;7.50;2.95;;;;;;;-145.50;100.00;65435.88;4909925;29;20059;-65
2023/03/29 05:46:29;;;;;;;5.95;3.45;;;;;;;-145.50;100.00;65435.88;4892260;29;20060;-67
2023/03/29 05:48:56;;;;;;;5.03;2.72;;;;;;;-145.50;100.00;65435.88;4899449;29;20251;-66
2023/03/29 05:51:23;;;;;;;7.90;3.28;;;;;;;-145.50;100.00;65435.88;4910249;29;20086;-67
2023/03/29 05:53:50;;;;;;;5.03;2.92;;;;;;;-145.50;100.00;65435.88;4905103;29;20059;-68
2023/03/29 05:56:17;;;;;;;4.70;2.80;;;;;;;-145.50;100.00;65435.88;4904551;29;20079;-66
2023/03/29 05:58:48;;;;;;;4.88;2.80;;;;;;;-145.50;100.00;65435.88;4906354;29;20056;-67
2023/03/29 06:01:17;;;;;;;6.57;3.03;;;;;;;-145.50;100.00;65435.88;4907195;29;20083;-67
2023/03/29 06:03:46;;;;;;;6.57;2.95;;;;;;;-145.50;100.00;65435.88;4912083;29;20056;-67
2023/03/29 06:06:15;;;;;;;6.30;2.80;;;;;;;-145.50;100.00;65435.88;4905124;29;20185;-68
2023/03/29 06:08:42;;;;;;;6.00;2.90;;;;;;;-145.50;100.00;65435.88;4907103;29;20048;-67
2023/03/29 06:11:09;;;;;;;5.78;3.10;;;;;;;-145.50;100.00;65435.88;4896259;29;20052;-67
2023/03/29 06:13:37;;;;;;;4.55;2.63;;;;;;;-145.50;100.00;65435.88;4910207;29;20059;-66
2023/03/29 06:16:05;;;;;;;5.00;2.92;;;;;;;-145.50;100.00;65435.88;4899476;29;20723;-67
2023/03/29 06:18:32;;;;;;;6.68;3.05;;;;;;;-145.50;100.00;65435.88;4907684;29;20592;-65
2023/03/29 06:20:59;;;;;;;5.82;2.88;;;;;;;-145.50;100.00;65435.88;4911474;29;20055;-66
2023/03/29 06:23:26;;;;;;;10.98;3.25;;;;;;;-145.50;100.00;65435.88;4901856;29;20060;-64
2023/03/29 06:25:54;;;;;;;5.47;2.88;;;;;;;-145.50;100.00;65435.88;4908458;29;20156;-65
2023/03/29 06:28:21;;;;;;;5.33;3.10;;;;;;;-145.50;100.00;65435.88;4906126;29;20432;-64
2023/03/29 06:30:48;;;;;;;5.45;2.72;;;;;;;-145.50;100.00;65435.88;4910954;29;20108;-64
2023/03/29 06:33:15;;;;;;;4.97;2.70;;;;;;;-145.50;100.00;65435.88;4911233;29;20048;-64
2023/03/29 06:35:45;;;;;;;4.90;3.15;;;;;;;-145.50;100.00;65435.88;4903329;29;20052;-64
2023/03/29 06:38:13;;;;;;;8.13;3.45;;;;;;;-145.50;100.00;65435.88;4904601;29;20048;-64
2023/03/29 06:40:41;;;;;;;8.07;3.08;;;;;;;-145.50;100.00;65435.88;4904937;29;20135;-65
2023/03/29 06:43:08;;;;;;;8.50;3.25;;;;;;;-145.50;100.00;65435.88;4912397;29;20051;-66
2023/03/29 06:45:36;;;;;;;6.10;3.00;;;;;;;-145.50;100.00;65435.88;4906903;29;20094;-66
2023/03/29 06:48:05;;;;;;;8.98;3.30;;;;;;;-145.50;100.00;65435.88;4911073;29;20111;-64
2023/03/29 06:50:33;;;;;;;7.95;3.72;;;;;;;-145.50;100.00;65435.88;4908969;29;20417;-64
2023/03/29 06:53:00;;;;;;;5.00;3.45;;;;;;;-145.50;100.00;65435.88;4901247;29;20051;-65
2023/03/29 06:55:27;;;;;;;6.75;3.83;;;;;;;-145.50;100.00;65435.88;4912152;29;20067;-65
2023/03/29 06:57:54;;;;;;;9.20;3.90;;;;;;;-145.50;100.00;65435.88;4905400;29;20056;-65
2023/03/29 07:00:26;;;;;;;8.10;3.63;;;;;;;-145.50;100.00;65435.88;4911168;29;20056;-67
2023/03/29 07:02:55;;;;;;;8.88;4.15;;;;;;;-145.50;100.00;65435.88;4903557;29;20052;-68
2023/03/29 07:05:22;;;;;;;8.52;3.80;;;;;;;-145.50;100.00;65435.88;4906097;29;20188;-65
2023/03/29 07:10:37;;;;;;;8.77;3.88;;;;;;;-145.50;100.00;65435.88;4907453;29;20056;-66
2023/03/29 07:13:05;;;;;;;12.40;3.92;;;;;;;-145.50;100.00;65435.88;4906891;29;20068;-65
2023/03/29 07:15:32;;;;;;;6.68;3.78;;;;;;;-145.50;100.00;65435.88;4904088;29;20880;-65
2023/03/29 07:18:00;;;;;;;8.85;3.72;;;;;;;-145.50;100.00;65435.88;4906551;29;20083;-65
2023/03/29 07:20:27;;;;;;;8.43;4.03;;;;;;;-145.50;100.00;65435.88;4900749;29;20048;-65
2023/03/29 07:22:54;;;;;;;7.68;4.20;;;;;;;-145.50;100.00;65435.88;4911669;29;20056;-65
2023/03/29 07:25:22;;;;;;;6.40;3.50;;;;;;;-145.50;100.00;65435.88;4905263;29;20088;-66
2023/03/29 07:27:50;;;;;;;7.25;4.20;;;;;;;-145.50;100.00;65435.88;4910609;29;20060;-64
2023/03/29 07:30:20;;;;;;;7.40;3.92;;;;;;;-145.50;100.00;65435.88;4911820;29;20103;-65
2023/03/29 07:32:46;;;;;;;7.57;3.60;;;;;;;-145.50;100.00;65435.88;4895702;29;20060;-65
2023/03/29 07:35:14;;;;;;;6.93;3.90;;;;;;;-145.50;100.00;65435.88;4908978;29;20143;-65
2023/03/29 07:37:41;;;;;;;13.15;4.15;;;;;;;-145.50;100.00;65435.88;4905213;29;20052;-65
2023/03/29 07:40:14;;;;;;;12.65;4.18;;;;;;;-145.50;100.00;65435.88;4911014;29;20549;-65
2023/03/29 07:42:43;;;;;;;5.32;3.50;;;;;;;-145.50;100.00;65435.88;4905740;29;20062;-65
2023/03/29 07:45:12;;;;;;;5.25;3.30;;;;;;;-145.50;100.00;65435.88;4905873;29;20557;-67
2023/03/29 07:47:39;;;;;;;9.00;4.13;;;;;;;-145.50;100.00;65435.88;4906964;29;20052;-65
2023/03/29 07:50:08;;;;;;;5.63;3.60;;;;;;;-145.50;100.00;65435.88;4905130;29;20138;-67
2023/03/29 07:52:37;;;;;;;7.57;3.60;;;;;;;-145.50;100.00;65435.88;4909178;29;20091;-65
2023/03/29 07:55:04;;;;;;;;;;;;;;;-145.50;100.00;65435.88;4905907;29;20044;-65
2023/03/29 07:57:31;;;;;;;11.82;4.50;;;;;;;-145.50;100.00;65435.88;4910230;29;19989;-66
2023/03/29 07:59:58;;;;;;;8.70;4.03;;;;;;;-145.50;100.00;65435.88;4900456;29;20394;-65
2023/03/29 08:02:25;;;;;;;9.98;4.32;;;;;;;-145.50;100.00;65435.88;4905660;29;20849;-65
2023/03/29 08:04:53;;;;;;;7.68;4.10;;;;;;;-145.50;100.00;65435.88;4910241;29;20055;-66
2023/03/29 08:07:20;;;;;;;10.75;4.28;;;;;;;-145.50;100.00;65435.88;4916097;29;20054;-65
2023/03/29 08:09:47;;;;;;;10.55;4.80;;;;;;;-145.50;100.00;65435.88;4910498;29;20500;-66
2023/03/29 08:12:14;;;;;;;9.20;4.22;;;;;;;-145.50;100.00;65435.88;4904720;29;20131;-66
2023/03/29 08:14:41;;;;;;;8.77;4.20;;;;;;;-145.50;100.00;65435.88;4907914;29;20334;-65
2023/03/29 08:17:07;;;;;;;8.75;4.30;;;;;;;-145.50;100.00;65435.88;4907376;29;20045;-65
2023/03/29 08:19:34;;;;;;;9.48;5.15;;;;;;;-145.50;100.00;65435.88;4911184;29;20453;-65
2023/03/29 08:22:01;;;;;;;8.82;4.60;;;;;;;-145.50;100.00;65435.88;4908381;29;20087;-66
2023/03/29 08:24:28;;;;;;;9.60;4.93;;;;;;;-145.50;100.00;65435.88;4904448;29;20059;-65
2023/03/29 08:26:54;;;;;;;10.35;5.43;;;;;;;-145.50;100.00;65435.88;4919312;29;20117;-65
2023/03/29 08:29:21;;;;;;;9.02;5.10;;;;;;;-145.50;100.00;65435.88;4900718;29;20052;-65
2023/03/29 08:31:48;;;;;;;13.07;5.20;;;;;;;-145.50;100.00;65435.88;4910258;29;20086;-65
2023/03/29 08:34:15;;;;;;;7.85;4.70;;;;;;;-145.50;100.00;65435.88;4904736;29;20131;-65
2023/03/29 08:36:41;;;;;;;10.18;4.88;;;;;;;-145.50;100.00;65435.88;4910020;29;20052;-65
2023/03/29 08:39:08;;;;;;;9.63;4.47;;;;;;;-145.50;100.00;65435.88;4909703;29;20509;-65
2023/03/29 08:41:38;;;;;;;8.27;5.05;;;;;;;-145.50;100.00;65435.88;4899678;29;20048;-65
2023/03/29 08:44:32;;;;;;;9.60;5.78;;;;;;;-145.50;100.00;65435.88;4913806;29;20055;-66
2023/03/29 08:47:08;;;;;;;10.63;5.22;;;;;;;-145.50;100.00;65435.88;4907379;29;20059;-65
2023/03/29 08:49:38;;;;;;;10.48;5.82;;;;;;;-145.50;100.00;65435.88;4910893;29;20075;-65
2023/03/29 08:52:15;;;;;;;11.85;5.88;;;;;;;-145.50;100.00;65435.88;4908758;29;20155;-65
2023/03/29 08:54:47;;;;;;;16.45;6.22;;;;;;;-145.50;100.00;65435.88;4912519;29;20100;-66
2023/03/29 08:57:29;;;;;;;11.77;5.25;;;;;;;-145.50;100.00;65435.88;4906853;29;20050;-66
2023/03/29 09:00:00;;;;;;;12.32;5.78;;;;;;;-145.50;100.00;65435.88;4917116;29;20055;-67
2023/03/29 09:02:32;;;;;;;9.88;6.03;;;;;;;-145.50;100.00;65435.88;4906840;29;20493;-67
2023/03/29 09:05:06;;;;;;;12.05;6.18;;;;;;;-145.50;100.00;65435.88;4908337;29;20063;-65
2023/03/29 09:07:33;;;;;;;11.75;5.85;;;;;;;-145.50;100.00;65435.88;4907703;29;20058;-66
2023/03/29 09:09:59;;;;;;;11.15;6.00;;;;;;;-145.50;100.00;65435.88;4907525;29;20052;-65
2023/03/29 09:13:13;;;;;;;12.68;6.15;;;;;;;-145.50;100.00;65435.88;4913117;29;20662;-67
2023/03/29 09:15:53;;;;;;;11.65;6.30;;;;;;;-145.50;100.00;65435.88;4881741;29;20056;-66
2023/03/29 09:18:32;;;;;;;12.40;5.65;;;;;;;-145.50;100.00;65435.88;4909350;29;20052;-65
2023/03/29 09:21:10;;;;;;;22.83;6.63;;;;;;;-145.50;100.00;65435.88;4898076;29;20048;-66
2023/03/29 09:23:43;;;;;;;11.07;6.80;;;;;;;-145.50;100.00;65435.88;4913320;29;20485;-68
2023/03/29 09:26:35;;;;;;;12.45;6.55;;;;;;;-145.50;100.00;65435.88;4907057;29;20545;-65
2023/03/29 09:29:14;;;;;;;9.35;5.50;;;;;;;-145.50;100.00;65435.88;4911072;29;20048;-65
2023/03/29 09:31:42;;;;;;;;;;;;;;;-145.50;100.00;65435.88;4900757;29;20066;-68
2023/03/29 09:34:21;;;;;;;11.32;5.97;;;;;;;-145.50;100.00;65435.88;4909525;29;19927;-66
2023/03/29 09:36:51;;;;;;;10.93;6.82;;;;;;;-145.50;100.00;65435.88;4907263;29;20052;-66
2023/03/29 09:39:22;;;;;;;12.60;7.50;;;;;;;-145.50;100.00;65435.88;4912942;29;20058;-66
2023/03/29 09:42:04;;;;;;;13.07;7.38;;;;;;;-145.50;100.00;65435.88;4912906;29;20052;-65
2023/03/29 09:44:36;;;;;;;12.57;7.18;;;;;;;-145.50;100.00;65435.88;4907221;29;20056;-65
2023/03/29 09:47:43;;;;;;;13.65;7.50;;;;;;;-145.50;100.00;65435.88;4908359;29;20052;-66
2023/03/29 09:50:19;;;;;;;16.52;7.25;;;;;;;-145.50;100.00;65435.88;4865138;29;20058;-66
2023/03/29 09:52:57;;;;;;;14.45;8.85;;;;;;;-145.50;100.00;65435.88;4877670;29;20048;-66
2023/03/29 09:55:28;;;;;;;12.45;7.47;;;;;;;-145.50;100.00;65435.88;4881831;29;20060;-67
2023/03/29 09:57:59;;;;;;;13.93;8.05;;;;;;;-145.50;100.00;65435.88;4876353;29;20049;-66
2023/03/29 10:00:26;;;;;;;14.88;7.03;;;;;;;-145.50;100.00;65435.88;4876050;29;20196;-66
2023/03/29 10:02:56;;;;;;;12.35;7.30;;;;;;;-145.50;100.00;65435.88;4882000;29;20080;-66
2023/03/29 10:05:25;;;;;;;13.75;7.05;;;;;;;-145.50;100.00;65435.88;4877638;29;20075;-68
2023/03/29 10:07:56;;;;;;;12.95;7.68;;;;;;;-145.50;100.00;65435.88;4880784;29;20064;-66
2023/03/29 10:10:34;;;;;;;12.45;8.20;;;;;;;-145.50;100.00;65435.88;4880106;29;20463;-67
2023/03/29 10:13:05;;;;;;;13.55;7.90;;;;;;;-145.50;100.00;65435.88;4879169;29;20097;-66
2023/03/29 10:15:32;;;;;;;11.48;7.40;;;;;;;-145.50;100.00;65435.88;4859536;29;20140;-66
2023/03/29 10:18:04;;;;;;;13.13;7.65;;;;;;;-145.50;100.00;65435.88;4872928;29;20045;-66
2023/03/29 10:20:35;;;;;;;10.43;6.50;;;;;;;-145.50;100.00;65435.88;4886713;29;20052;-66
2023/03/29 10:23:04;;;;;;;11.13;7.20;;;;;;;-145.50;100.00;65435.88;4872755;29;20045;-65
2023/03/29 10:25:35;;;;;;;10.88;6.85;;;;;;;-145.50;100.00;65435.88;4915300;29;20488;-66
2023/03/29 10:28:10;;;;;;;12.35;7.25;;;;;;;-145.50;100.00;65435.88;4909886;29;20063;-66
2023/03/29 10:30:38;;;;;;;9.50;6.95;;;;;;;-145.50;100.00;65435.88;4903263;29;20060;-67
2023/03/29 10:33:12;;;;;;;;;;;;;;;-145.50;100.00;65435.88;4913602;29;20096;-66
2023/03/29 10:35:40;;;;;;;12.90;6.65;;;;;;;-145.50;100.00;65435.88;4906593;29;19931;-66
2023/03/29 10:38:13;;;;;;;11.43;7.45;;;;;;;-145.50;100.00;65435.88;4912112;29;20059;-65
2023/03/29 10:40:45;;;;;;;10.73;6.78;;;;;;;-145.50;100.00;65435.88;4903265;29;20079;-67
2023/03/29 10:43:15;;;;;;;14.02;7.70;;;;;;;-145.50;100.00;65435.88;4906692;29;20051;-66
2023/03/29 10:45:42;;;;;;;14.82;7.18;;;;;;;-145.50;100.00;65435.88;4905437;29;20140;-65
2023/03/29 10:48:14;;;;;;;11.50;7.30;;;;;;;-145.50;100.00;65435.88;4911223;29;20048;-65
2023/03/29 10:50:41;;;;;;;15.68;7.05;;;;;;;-145.50;100.00;65435.88;4905834;29;20068;-66
2023/03/29 10:53:36;;;;;;;11.80;7.28;;;;;;;-145.50;100.00;65435.88;4911344;29;20131;-67
2023/03/29 10:56:15;;;;;;;13.00;7.75;;;;;;;-145.50;100.00;65435.88;4907228;29;20052;-67
2023/03/29 10:59:03;;;;;;;10.82;7.57;;;;;;;-145.50;100.00;65435.88;4902296;29;20082;-66
2023/03/29 11:01:54;;;;;;;9.88;6.78;;;;;;;-145.50;100.00;65435.88;4911160;29;20048;-66
2023/03/29 11:04:48;;;;;;;9.50;6.78;;;;;;;-145.50;100.00;65435.88;4904934;29;20528;-65
2023/03/29 11:07:35;;;;;;;11.48;7.20;;;;;;;-145.50;100.00;65435.88;4911471;29;20056;-66
2023/03/29 11:10:27;;;;;;;12.80;7.80;;;;;;;-145.50;100.00;65435.88;4902305;29;20055;-68
2023/03/29 11:13:10;;;;;;;13.50;7.85;;;;;;;-145.50;100.00;65435.88;4901623;29;20425;-65
2023/03/29 11:16:01;;;;;;;10.73;6.65;;;;;;;-145.50;100.00;65435.88;4905166;29;20059;-66
2023/03/29 11:18:41;;;;;;;11.35;6.60;;;;;;;-145.50;100.00;65435.88;4910639;29;20139;-65
2023/03/29 11:21:16;;;;;;;12.13;6.40;;;;;;;-145.50;100.00;65435.88;4904850;29;20135;-66
2023/03/29 11:24:18;;;;;;;10.88;6.40;;;;;;;-145.50;100.00;65435.88;4905534;29;20540;-65
2023/03/29 11:26:56;;;;;;;10.65;6.05;;;;;;;-145.50;100.00;65435.88;4891502;29;20583;-65